sensor_id;sensor_type;location;lat;lon;timestamp;pressure;altitude;pressure_sealevel;temperature;humidity
51249;BME280;39642;47.556;18.728;2024-01-11T00:01:14;100935.44;;;22.12;22.25
51249;BME280;39642;47.556;18.728;2024-01-11T00:03:40;100934.47;;;22.13;22.10
51249;BME280;39642;47.556;18.728;2024-01-11T00:06:06;100941.53;;;22.14;22.09
51249;BME280;39642;47.556;18.728;2024-01-11T00:08:32;100939.72;;;22.14;22.06
51249;BME280;39642;47.556;18.728;2024-01-11T00:10:58;100943.22;;;22.15;21.98
51249;BME280;39642;47.556;18.728;2024-01-11T00:13:24;100937.91;;;22.15;21.98
51249;BME280;39642;47.556;18.728;2024-01-11T00:15:50;100941.44;;;22.15;21.95
51249;BME280;39642;47.556;18.728;2024-01-11T00:18:15;100933.41;;;22.17;21.98
51249;BME280;39642;47.556;18.728;2024-01-11T00:20:43;100929.84;;;22.18;21.90
51249;BME280;39642;47.556;18.728;2024-01-11T00:23:09;100935.16;;;22.18;21.97
51249;BME280;39642;47.556;18.728;2024-01-11T00:25:34;100930.75;;;22.17;21.90
51249;BME280;39642;47.556;18.728;2024-01-11T00:28:01;100930.69;;;22.18;22.04
51249;BME280;39642;47.556;18.728;2024-01-11T00:30:27;100921.87;;;22.18;21.93
51249;BME280;39642;47.556;18.728;2024-01-11T00:32:53;100924.53;;;22.18;21.96
51249;BME280;39642;47.556;18.728;2024-01-11T00:35:19;100925.37;;;22.18;21.88
51249;BME280;39642;47.556;18.728;2024-01-11T00:37:45;100928.03;;;22.18;21.89
51249;BME280;39642;47.556;18.728;2024-01-11T00:40:11;100920.06;;;22.18;21.89
51249;BME280;39642;47.556;18.728;2024-01-11T00:42:37;100916.56;;;22.18;21.94
51249;BME280;39642;47.556;18.728;2024-01-11T00:45:03;100924.53;;;22.18;21.95
51249;BME280;39642;47.556;18.728;2024-01-11T00:47:29;100917.44;;;22.18;21.95
51249;BME280;39642;47.556;18.728;2024-01-11T00:49:55;100917.50;;;22.17;21.89
51249;BME280;39642;47.556;18.728;2024-01-11T00:52:21;100916.62;;;22.16;21.86
51249;BME280;39642;47.556;18.728;2024-01-11T00:54:47;100913.12;;;22.16;21.82
51249;BME280;39642;47.556;18.728;2024-01-11T00:57:13;100912.25;;;22.15;21.86
51249;BME280;39642;47.556;18.728;2024-01-11T00:59:40;100903.44;;;22.15;22.02
51249;BME280;39642;47.556;18.728;2024-01-11T01:02:06;100907.03;;;22.14;21.87
51249;BME280;39642;47.556;18.728;2024-01-11T01:04:32;100899.06;;;22.14;21.85
51249;BME280;39642;47.556;18.728;2024-01-11T01:06:57;100889.38;;;22.13;21.81
51249;BME280;39642;47.556;18.728;2024-01-11T01:09:23;100880.56;;;22.12;21.89
51249;BME280;39642;47.556;18.728;2024-01-11T01:11:49;100887.69;;;22.12;21.76
51249;BME280;39642;47.556;18.728;2024-01-11T01:14:15;100879.72;;;22.12;21.95
51249;BME280;39642;47.556;18.728;2024-01-11T01:16:41;100885.03;;;22.12;21.81
51249;BME280;39642;47.556;18.728;2024-01-11T01:19:07;100885.03;;;22.12;21.81
51249;BME280;39642;47.556;18.728;2024-01-11T01:21:33;100885.88;;;22.12;21.81
51249;BME280;39642;47.556;18.728;2024-01-11T01:23:59;100879.72;;;22.12;21.80
51249;BME280;39642;47.556;18.728;2024-01-11T01:26:25;100876.22;;;22.11;21.84
51249;BME280;39642;47.556;18.728;2024-01-11T01:28:51;100874.41;;;22.12;21.74
51249;BME280;39642;47.556;18.728;2024-01-11T01:31:17;100866.47;;;22.12;21.83
51249;BME280;39642;47.556;18.728;2024-01-11T01:33:43;100858.50;;;22.12;21.71
51249;BME280;39642;47.556;18.728;2024-01-11T01:36:10;100861.16;;;22.12;22.02
51249;BME280;39642;47.556;18.728;2024-01-11T01:38:36;100855.91;;;22.10;21.74
51249;BME280;39642;47.556;18.728;2024-01-11T01:41:02;100853.25;;;22.10;21.76
51249;BME280;39642;47.556;18.728;2024-01-11T01:43:28;100848.81;;;22.11;21.66
51249;BME280;39642;47.556;18.728;2024-01-11T01:45:54;100841.72;;;22.11;21.63
51249;BME280;39642;47.556;18.728;2024-01-11T01:48:20;100849.69;;;22.11;21.60
51249;BME280;39642;47.556;18.728;2024-01-11T01:50:47;100852.25;;;22.13;21.63
51249;BME280;39642;47.556;18.728;2024-01-11T01:53:19;100846.03;;;22.14;21.61
51249;BME280;39642;47.556;18.728;2024-01-11T01:55:45;100840.72;;;22.14;21.61
51249;BME280;39642;47.556;18.728;2024-01-11T01:58:12;100841.50;;;22.16;21.53
51249;BME280;39642;47.556;18.728;2024-01-11T02:00:38;100844.16;;;22.16;21.70
51249;BME280;39642;47.556;18.728;2024-01-11T02:03:06;100839.72;;;22.16;21.48
51249;BME280;39642;47.556;18.728;2024-01-11T02:05:32;100839.72;;;22.16;21.45
51249;BME280;39642;47.556;18.728;2024-01-11T02:08:01;100832.66;;;22.15;21.45
51249;BME280;39642;47.556;18.728;2024-01-11T02:10:30;100827.28;;;22.17;21.45
51249;BME280;39642;47.556;18.728;2024-01-11T02:12:58;100822.78;;;22.19;21.59
51249;BME280;39642;47.556;18.728;2024-01-11T02:15:24;100828.94;;;22.19;21.45
51249;BME280;39642;47.556;18.728;2024-01-11T02:17:50;100820.97;;;22.19;21.45
51249;BME280;39642;47.556;18.728;2024-01-11T02:20:16;100816.53;;;22.20;21.40
51249;BME280;39642;47.556;18.728;2024-01-11T02:22:47;100813.88;;;22.20;21.39
51249;BME280;39642;47.556;18.728;2024-01-11T02:25:15;100810.28;;;22.21;21.40
51249;BME280;39642;47.556;18.728;2024-01-11T02:27:48;100804.13;;;22.20;21.42
51249;BME280;39642;47.556;18.728;2024-01-11T02:30:15;100801.50;;;22.20;21.37
51249;BME280;39642;47.556;18.728;2024-01-11T02:32:43;100800.59;;;22.20;21.37
51249;BME280;39642;47.556;18.728;2024-01-11T02:35:10;100804.13;;;22.20;21.34
51249;BME280;39642;47.556;18.728;2024-01-11T02:37:37;100795.28;;;22.20;21.38
51249;BME280;39642;47.556;18.728;2024-01-11T02:40:04;100784.69;;;22.20;21.34
51249;BME280;39642;47.556;18.728;2024-01-11T02:42:30;100785.56;;;22.20;21.45
51249;BME280;39642;47.556;18.728;2024-01-11T02:44:56;100789.06;;;22.21;21.37
51249;BME280;39642;47.556;18.728;2024-01-11T02:47:22;100784.69;;;22.20;21.34
51249;BME280;39642;47.556;18.728;2024-01-11T02:49:48;100781.19;;;22.19;21.32
51249;BME280;39642;47.556;18.728;2024-01-11T02:52:14;100773.22;;;22.19;21.38
51249;BME280;39642;47.556;18.728;2024-01-11T02:54:39;100777.69;;;22.19;21.33
51249;BME280;39642;47.556;18.728;2024-01-11T02:57:05;100770.66;;;22.18;21.36
51249;BME280;39642;47.556;18.728;2024-01-11T02:59:32;100771.59;;;22.17;21.40
51249;BME280;39642;47.556;18.728;2024-01-11T03:01:58;100768.94;;;22.17;21.37
51249;BME280;39642;47.556;18.728;2024-01-11T03:04:24;100764.59;;;22.16;21.32
51249;BME280;39642;47.556;18.728;2024-01-11T03:06:50;100757.53;;;22.15;21.30
51249;BME280;39642;47.556;18.728;2024-01-11T03:09:15;100759.28;;;22.16;21.33
51249;BME280;39642;47.556;18.728;2024-01-11T03:11:41;100751.38;;;22.14;21.35
51249;BME280;39642;47.556;18.728;2024-01-11T03:14:07;100754.03;;;22.14;21.28
51249;BME280;39642;47.556;18.728;2024-01-11T03:16:33;100750.53;;;22.14;21.27
51249;BME280;39642;47.556;18.728;2024-01-11T03:18:59;100747.88;;;22.14;21.27
51249;BME280;39642;47.556;18.728;2024-01-11T03:21:26;100744.34;;;22.13;21.31
51249;BME280;39642;47.556;18.728;2024-01-11T03:23:52;100740.78;;;22.14;21.23
51249;BME280;39642;47.556;18.728;2024-01-11T03:26:18;100740.78;;;22.14;21.23
51249;BME280;39642;47.556;18.728;2024-01-11T03:28:44;100737.28;;;22.14;21.25
51249;BME280;39642;47.556;18.728;2024-01-11T03:31:10;100727.50;;;22.14;21.19
51249;BME280;39642;47.556;18.728;2024-01-11T03:33:36;100733.72;;;22.13;21.20
51249;BME280;39642;47.556;18.728;2024-01-11T03:36:09;100731.97;;;22.14;21.21
51249;BME280;39642;47.556;18.728;2024-01-11T03:38:35;100729.38;;;22.12;21.20
51249;BME280;39642;47.556;18.728;2024-01-11T03:41:02;100727.56;;;22.13;21.19
51249;BME280;39642;47.556;18.728;2024-01-11T03:43:28;100723.12;;;22.13;21.14
51249;BME280;39642;47.556;18.728;2024-01-11T03:45:54;100714.31;;;22.13;21.27
51249;BME280;39642;47.556;18.728;2024-01-11T03:48:19;100709.97;;;22.12;21.31
51249;BME280;39642;47.556;18.728;2024-01-11T03:50:45;100713.47;;;22.12;21.12
51249;BME280;39642;47.556;18.728;2024-01-11T03:53:11;100701.91;;;22.13;21.10
51249;BME280;39642;47.556;18.728;2024-01-11T03:55:37;100709.84;;;22.13;21.12
51249;BME280;39642;47.556;18.728;2024-01-11T03:58:03;100702.78;;;22.14;21.05
51249;BME280;39642;47.556;18.728;2024-01-11T04:00:29;100703.62;;;22.14;21.11
51249;BME280;39642;47.556;18.728;2024-01-11T04:02:55;100695.59;;;22.16;21.12
51249;BME280;39642;47.556;18.728;2024-01-11T04:05:20;100695.59;;;22.16;21.12
51249;BME280;39642;47.556;18.728;2024-01-11T04:07:46;100693.81;;;22.16;21.27
51249;BME280;39642;47.556;18.728;2024-01-11T04:10:12;100692.00;;;22.17;21.04
51249;BME280;39642;47.556;18.728;2024-01-11T04:12:38;100699.03;;;22.18;21.01
51249;BME280;39642;47.556;18.728;2024-01-11T04:15:04;100698.09;;;22.19;20.97
51249;BME280;39642;47.556;18.728;2024-01-11T04:17:30;100706.06;;;22.19;20.96
51249;BME280;39642;47.556;18.728;2024-01-11T04:19:56;100700.75;;;22.19;20.96
51249;BME280;39642;47.556;18.728;2024-01-11T04:22:22;100705.09;;;22.20;20.93
51249;BME280;39642;47.556;18.728;2024-01-11T04:24:48;100705.09;;;22.20;21.19
51249;BME280;39642;47.556;18.728;2024-01-11T04:27:14;100698.88;;;22.21;21.01
51249;BME280;39642;47.556;18.728;2024-01-11T04:29:39;100700.63;;;22.22;21.00
51249;BME280;39642;47.556;18.728;2024-01-11T04:32:05;100704.16;;;22.22;20.95
51249;BME280;39642;47.556;18.728;2024-01-11T04:34:31;100695.31;;;22.22;20.96
51249;BME280;39642;47.556;18.728;2024-01-11T04:36:57;100697.97;;;22.22;20.95
51249;BME280;39642;47.556;18.728;2024-01-11T04:39:23;100706.81;;;22.22;20.96
51249;BME280;39642;47.556;18.728;2024-01-11T04:41:49;100707.66;;;22.23;20.95
51249;BME280;39642;47.556;18.728;2024-01-11T04:44:14;100705.00;;;22.23;20.92
51249;BME280;39642;47.556;18.728;2024-01-11T04:46:41;100707.72;;;22.21;20.92
51249;BME280;39642;47.556;18.728;2024-01-11T04:49:07;100698.03;;;22.20;20.94
51249;BME280;39642;47.556;18.728;2024-01-11T04:51:32;100706.84;;;22.21;20.95
51249;BME280;39642;47.556;18.728;2024-01-11T04:53:58;100702.44;;;22.20;20.91
51249;BME280;39642;47.556;18.728;2024-01-11T04:56:24;100698.94;;;22.19;21.01
51249;BME280;39642;47.556;18.728;2024-01-11T04:58:50;100699.91;;;22.18;21.16
51249;BME280;39642;47.556;18.728;2024-01-11T05:01:17;100692.00;;;22.17;20.90
51249;BME280;39642;47.556;18.728;2024-01-11T05:03:44;100699.97;;;22.17;20.91
51249;BME280;39642;47.556;18.728;2024-01-11T05:06:20;100697.31;;;22.17;20.85
51249;BME280;39642;47.556;18.728;2024-01-11T05:08:47;100695.59;;;22.16;20.79
51249;BME280;39642;47.556;18.728;2024-01-11T05:11:17;100693.75;;;22.18;20.84
51249;BME280;39642;47.556;18.728;2024-01-11T05:13:44;100688.44;;;22.18;20.81
51249;BME280;39642;47.556;18.728;2024-01-11T05:16:23;100697.31;;;22.17;20.74
51249;BME280;39642;47.556;18.728;2024-01-11T05:18:50;100692.78;;;22.19;20.76
51249;BME280;39642;47.556;18.728;2024-01-11T05:21:17;100696.41;;;22.18;20.75
51249;BME280;39642;47.556;18.728;2024-01-11T05:23:43;100691.09;;;22.18;20.71
51249;BME280;39642;47.556;18.728;2024-01-11T05:26:09;100694.59;;;22.18;20.75
51249;BME280;39642;47.556;18.728;2024-01-11T05:28:35;100690.12;;;22.19;20.75
51249;BME280;39642;47.556;18.728;2024-01-11T05:31:01;100695.44;;;22.19;20.77
51249;BME280;39642;47.556;18.728;2024-01-11T05:33:27;100688.34;;;22.19;20.83
51249;BME280;39642;47.556;18.728;2024-01-11T05:35:53;100695.44;;;22.19;20.92
51249;BME280;39642;47.556;18.728;2024-01-11T05:38:19;100688.34;;;22.19;20.88
51249;BME280;39642;47.556;18.728;2024-01-11T05:40:45;100694.50;;;22.20;20.90
51249;BME280;39642;47.556;18.728;2024-01-11T05:43:11;100699.78;;;22.20;20.89
51249;BME280;39642;47.556;18.728;2024-01-11T05:45:37;100701.59;;;22.19;20.91
51249;BME280;39642;47.556;18.728;2024-01-11T05:48:03;100695.44;;;22.19;21.17
51249;BME280;39642;47.556;18.728;2024-01-11T05:50:31;100692.66;;;22.22;23.59
51249;BME280;39642;47.556;18.728;2024-01-11T05:52:57;100688.00;;;22.27;24.37
51249;BME280;39642;47.556;18.728;2024-01-11T05:55:23;100702.03;;;22.29;24.30
51249;BME280;39642;47.556;18.728;2024-01-11T05:57:49;100709.03;;;22.30;24.31
51249;BME280;39642;47.556;18.728;2024-01-11T06:00:15;100706.31;;;22.32;24.73
51249;BME280;39642;47.556;18.728;2024-01-11T06:02:42;100705.37;;;22.33;24.89
51249;BME280;39642;47.556;18.728;2024-01-11T06:05:08;100705.37;;;22.33;24.54
51249;BME280;39642;47.556;18.728;2024-01-11T06:07:35;100702.72;;;22.33;24.57
51249;BME280;39642;47.556;18.728;2024-01-11T06:10:01;100698.25;;;22.33;24.25
51249;BME280;39642;47.556;18.728;2024-01-11T06:12:28;100695.59;;;22.33;24.00
51249;BME280;39642;47.556;18.728;2024-01-11T06:14:54;100696.56;;;22.32;24.30
51249;BME280;39642;47.556;18.728;2024-01-11T06:17:20;100696.56;;;22.32;23.43
51249;BME280;39642;47.556;18.728;2024-01-11T06:19:46;100701.87;;;22.32;23.88
51249;BME280;39642;47.556;18.728;2024-01-11T06:22:12;100684.31;;;22.30;23.84
51249;BME280;39642;47.556;18.728;2024-01-11T06:24:38;100678.91;;;22.31;24.22
51249;BME280;39642;47.556;18.728;2024-01-11T06:27:04;100684.31;;;22.30;23.77
51249;BME280;39642;47.556;18.728;2024-01-11T06:29:30;100698.37;;;22.32;23.87
51249;BME280;39642;47.556;18.728;2024-01-11T06:31:56;100687.66;;;22.33;24.18
51249;BME280;39642;47.556;18.728;2024-01-11T06:34:22;100689.38;;;22.34;24.21
51249;BME280;39642;47.556;18.728;2024-01-11T06:36:48;100686.62;;;22.36;24.22
51249;BME280;39642;47.556;18.728;2024-01-11T06:39:14;100686.62;;;22.36;24.22
51249;BME280;39642;47.556;18.728;2024-01-11T06:41:40;100668.28;;;22.31;23.44
51249;BME280;39642;47.556;18.728;2024-01-11T06:44:06;100677.37;;;22.27;24.03
51249;BME280;39642;47.556;18.728;2024-01-11T06:46:31;100682.13;;;22.20;24.57
51249;BME280;39642;47.556;18.728;2024-01-11T06:48:57;100675.06;;;22.19;24.64
51249;BME280;39642;47.556;18.728;2024-01-11T06:51:24;100670.63;;;22.20;25.10
51249;BME280;39642;47.556;18.728;2024-01-11T06:53:49;100674.37;;;22.16;24.44
51249;BME280;39642;47.556;18.728;2024-01-11T06:56:16;100674.37;;;22.16;24.58
51249;BME280;39642;47.556;18.728;2024-01-11T06:58:43;100669.94;;;22.16;23.10
51249;BME280;39642;47.556;18.728;2024-01-11T07:01:10;100674.37;;;22.16;23.42
51249;BME280;39642;47.556;18.728;2024-01-11T07:03:37;100682.97;;;22.03;22.50
51249;BME280;39642;47.556;18.728;2024-01-11T07:06:03;100677.03;;;21.98;23.01
51249;BME280;39642;47.556;18.728;2024-01-11T07:08:30;100678.75;;;21.99;22.24
51249;BME280;39642;47.556;18.728;2024-01-11T07:10:56;100675.94;;;22.02;23.58
51249;BME280;39642;47.556;18.728;2024-01-11T07:13:22;100683.91;;;22.02;21.98
51249;BME280;39642;47.556;18.728;2024-01-11T07:15:48;100681.31;;;22.01;21.63
51249;BME280;39642;47.556;18.728;2024-01-11T07:18:14;100683.75;;;22.06;21.42
51249;BME280;39642;47.556;18.728;2024-01-11T07:20:40;100683.56;;;22.09;21.68
51249;BME280;39642;47.556;18.728;2024-01-11T07:23:06;100680.84;;;22.10;22.31
51249;BME280;39642;47.556;18.728;2024-01-11T07:25:32;100675.47;;;22.12;22.90
51249;BME280;39642;47.556;18.728;2024-01-11T07:28:01;100677.19;;;22.13;23.18
51249;BME280;39642;47.556;18.728;2024-01-11T07:30:27;100687.66;;;22.16;23.84
51249;BME280;39642;47.556;18.728;2024-01-11T07:32:53;100690.12;;;22.19;24.16
51249;BME280;39642;47.556;18.728;2024-01-11T07:35:19;100689.94;;;22.23;24.40
51249;BME280;39642;47.556;18.728;2024-01-11T07:37:46;100688.91;;;22.26;24.61
51249;BME280;39642;47.556;18.728;2024-01-11T07:40:11;100689.53;;;22.31;24.69
51249;BME280;39642;47.556;18.728;2024-01-11T07:42:39;100683.06;;;22.37;24.94
51249;BME280;39642;47.556;18.728;2024-01-11T07:45:06;100675.88;;;22.39;24.75
51249;BME280;39642;47.556;18.728;2024-01-11T07:47:33;100677.50;;;22.41;24.54
51249;BME280;39642;47.556;18.728;2024-01-11T07:49:59;100675.81;;;22.40;24.47
51249;BME280;39642;47.556;18.728;2024-01-11T07:52:25;100682.03;;;22.39;24.94
51249;BME280;39642;47.556;18.728;2024-01-11T07:54:51;100672.38;;;22.38;24.24
51249;BME280;39642;47.556;18.728;2024-01-11T07:57:17;100672.62;;;22.34;25.44
51249;BME280;39642;47.556;18.728;2024-01-11T07:59:43;100658.56;;;22.32;24.87
51249;BME280;39642;47.556;18.728;2024-01-11T08:02:09;100667.37;;;22.32;24.90
51249;BME280;39642;47.556;18.728;2024-01-11T08:04:35;100662.91;;;22.33;24.72
51249;BME280;39642;47.556;18.728;2024-01-11T08:07:00;100656.69;;;22.34;24.11
51249;BME280;39642;47.556;18.728;2024-01-11T08:09:28;100660.19;;;22.34;24.14
51249;BME280;39642;47.556;18.728;2024-01-11T08:11:54;100656.53;;;22.37;24.39
51249;BME280;39642;47.556;18.728;2024-01-11T08:14:20;100657.37;;;22.37;24.67
51249;BME280;39642;47.556;18.728;2024-01-11T08:16:46;100653.78;;;22.38;24.64
51249;BME280;39642;47.556;18.728;2024-01-11T08:19:12;100647.53;;;22.39;24.73
51249;BME280;39642;47.556;18.728;2024-01-11T08:21:42;100647.53;;;22.39;24.80
51249;BME280;39642;47.556;18.728;2024-01-11T08:24:08;100644.88;;;22.39;24.98
51249;BME280;39642;47.556;18.728;2024-01-11T08:26:34;100638.66;;;22.40;25.28
51249;BME280;39642;47.556;18.728;2024-01-11T08:29:00;100638.66;;;22.40;25.49
51249;BME280;39642;47.556;18.728;2024-01-11T08:31:26;100642.16;;;22.41;25.53
51249;BME280;39642;47.556;18.728;2024-01-11T08:33:53;100635.03;;;22.41;25.74
51249;BME280;39642;47.556;18.728;2024-01-11T08:36:18;100636.91;;;22.39;25.91
51249;BME280;39642;47.556;18.728;2024-01-11T08:38:44;100637.78;;;22.40;25.90
51249;BME280;39642;47.556;18.728;2024-01-11T08:41:10;100647.47;;;22.41;25.71
51249;BME280;39642;47.556;18.728;2024-01-11T08:43:36;100640.34;;;22.41;25.53
51249;BME280;39642;47.556;18.728;2024-01-11T08:46:02;100631.38;;;22.44;25.55
51249;BME280;39642;47.556;18.728;2024-01-11T08:48:28;100638.41;;;22.45;25.73
51249;BME280;39642;47.556;18.728;2024-01-11T08:50:54;100627.09;;;22.41;25.70
51249;BME280;39642;47.556;18.728;2024-01-11T08:53:20;100634.88;;;22.44;25.55
51249;BME280;39642;47.556;18.728;2024-01-11T08:55:47;100629.66;;;22.43;24.69
51249;BME280;39642;47.556;18.728;2024-01-11T08:58:13;100628.72;;;22.44;24.00
51249;BME280;39642;47.556;18.728;2024-01-11T09:00:39;100638.00;;;22.35;24.00
51249;BME280;39642;47.556;18.728;2024-01-11T09:03:05;100633.34;;;22.40;25.79
51249;BME280;39642;47.556;18.728;2024-01-11T09:05:30;100630.44;;;22.45;25.08
51249;BME280;39642;47.556;18.728;2024-01-11T09:07:57;100631.44;;;22.42;24.30
51249;BME280;39642;47.556;18.728;2024-01-11T09:10:23;100632.41;;;22.41;24.60
51249;BME280;39642;47.556;18.728;2024-01-11T09:12:49;100633.34;;;22.40;27.16
51249;BME280;39642;47.556;18.728;2024-01-11T09:15:15;100636.75;;;22.42;27.33
51249;BME280;39642;47.556;18.728;2024-01-11T09:17:41;100626.91;;;22.44;27.22
51249;BME280;39642;47.556;18.728;2024-01-11T09:20:07;100619.72;;;22.47;27.03
51249;BME280;39642;47.556;18.728;2024-01-11T09:22:33;100618.88;;;22.46;26.68
51249;BME280;39642;47.556;18.728;2024-01-11T09:24:59;100625.03;;;22.47;26.38
51249;BME280;39642;47.556;18.728;2024-01-11T09:27:25;100615.28;;;22.47;26.17
51249;BME280;39642;47.556;18.728;2024-01-11T09:29:50;100609.13;;;22.47;25.98
51249;BME280;39642;47.556;18.728;2024-01-11T09:32:17;100601.25;;;22.45;25.92
51249;BME280;39642;47.556;18.728;2024-01-11T09:34:43;100595.25;;;22.41;24.80
51249;BME280;39642;47.556;18.728;2024-01-11T09:37:11;100585.72;;;22.37;25.09
51249;BME280;39642;47.556;18.728;2024-01-11T09:39:36;100581.44;;;22.35;24.18
51249;BME280;39642;47.556;18.728;2024-01-11T09:42:11;100562.16;;;22.31;24.10
51249;BME280;39642;47.556;18.728;2024-01-11T09:44:38;100553.47;;;22.29;24.26
51249;BME280;39642;47.556;18.728;2024-01-11T09:47:06;100551.97;;;22.23;24.82
51249;BME280;39642;47.556;18.728;2024-01-11T09:49:35;100552.19;;;22.19;25.93
51249;BME280;39642;47.556;18.728;2024-01-11T09:52:04;100552.09;;;22.04;23.57
51249;BME280;39642;47.556;18.728;2024-01-11T09:54:30;100540.94;;;21.98;24.49
51249;BME280;39642;47.556;18.728;2024-01-11T09:56:58;100528.72;;;21.95;23.88
51249;BME280;39642;47.556;18.728;2024-01-11T09:59:25;100525.97;;;21.79;22.92
51249;BME280;39642;47.556;18.728;2024-01-11T10:01:51;100517.47;;;21.73;23.35
51249;BME280;39642;47.556;18.728;2024-01-11T10:04:18;100519.81;;;21.79;23.18
51249;BME280;39642;47.556;18.728;2024-01-11T10:06:44;100517.63;;;21.87;23.84
51249;BME280;39642;47.556;18.728;2024-01-11T10:09:10;100508.34;;;21.96;24.71
51249;BME280;39642;47.556;18.728;2024-01-11T10:11:37;100507.06;;;22.03;23.78
51249;BME280;39642;47.556;18.728;2024-01-11T10:14:03;100505.81;;;22.10;23.22
51249;BME280;39642;47.556;18.728;2024-01-11T10:16:31;100504.44;;;22.19;23.17
51249;BME280;39642;47.556;18.728;2024-01-11T10:18:57;100489.16;;;22.24;23.04
51249;BME280;39642;47.556;18.728;2024-01-11T10:21:23;100483.59;;;22.29;23.24
51249;BME280;39642;47.556;18.728;2024-01-11T10:23:50;100482.44;;;22.34;22.97
51249;BME280;39642;47.556;18.728;2024-01-11T10:26:17;100482.31;;;22.36;22.96
51249;BME280;39642;47.556;18.728;2024-01-11T10:28:46;100471.72;;;22.36;22.45
51249;BME280;39642;47.556;18.728;2024-01-11T10:31:12;100482.16;;;22.39;22.42
51249;BME280;39642;47.556;18.728;2024-01-11T10:33:41;100484.75;;;22.40;22.35
51249;BME280;39642;47.556;18.728;2024-01-11T10:36:07;100481.84;;;22.45;22.46
51249;BME280;39642;47.556;18.728;2024-01-11T10:38:37;100479.06;;;22.47;22.97
51249;BME280;39642;47.556;18.728;2024-01-11T10:41:05;100471.88;;;22.49;23.35
51249;BME280;39642;47.556;18.728;2024-01-11T10:43:36;100468.13;;;22.53;24.30
51249;BME280;39642;47.556;18.728;2024-01-11T10:46:03;100464.63;;;22.52;24.51
51249;BME280;39642;47.556;18.728;2024-01-11T10:48:35;100468.97;;;22.53;25.44
51249;BME280;39642;47.556;18.728;2024-01-11T10:51:06;100470.97;;;22.50;25.04
51249;BME280;39642;47.556;18.728;2024-01-11T10:53:47;100466.91;;;22.42;24.58
51249;BME280;39642;47.556;18.728;2024-01-11T10:56:16;100459.66;;;22.30;23.94
51249;BME280;39642;47.556;18.728;2024-01-11T10:58:43;100448.25;;;22.28;24.80
51249;BME280;39642;47.556;18.728;2024-01-11T11:01:12;100434.16;;;22.28;24.53
51249;BME280;39642;47.556;18.728;2024-01-11T11:03:39;100432.34;;;22.28;24.33
51249;BME280;39642;47.556;18.728;2024-01-11T11:06:08;100442.88;;;22.30;24.15
51249;BME280;39642;47.556;18.728;2024-01-11T11:08:36;100439.19;;;22.32;24.52
51249;BME280;39642;47.556;18.728;2024-01-11T11:11:04;100432.88;;;22.35;24.63
51249;BME280;39642;47.556;18.728;2024-01-11T11:13:34;100437.13;;;22.37;24.78
51249;BME280;39642;47.556;18.728;2024-01-11T11:16:00;100436.22;;;22.38;24.84
51249;BME280;39642;47.556;18.728;2024-01-11T11:18:29;100419.34;;;22.39;25.44
51249;BME280;39642;47.556;18.728;2024-01-11T11:20:57;100437.00;;;22.40;24.79
51249;BME280;39642;47.556;18.728;2024-01-11T11:23:23;100435.25;;;22.39;24.86
51249;BME280;39642;47.556;18.728;2024-01-11T11:25:49;100421.81;;;22.42;24.37
51249;BME280;39642;47.556;18.728;2024-01-11T11:28:17;100428.00;;;22.43;24.37
51249;BME280;39642;47.556;18.728;2024-01-11T11:30:44;100412.06;;;22.43;24.50
51249;BME280;39642;47.556;18.728;2024-01-11T11:33:17;100411.13;;;22.44;24.41
51249;BME280;39642;47.556;18.728;2024-01-11T11:35:46;100404.88;;;22.45;24.63
51249;BME280;39642;47.556;18.728;2024-01-11T11:38:18;100390.56;;;22.48;24.68
51249;BME280;39642;47.556;18.728;2024-01-11T11:40:51;100388.78;;;22.48;24.47
51249;BME280;39642;47.556;18.728;2024-01-11T11:43:18;100402.53;;;22.55;25.30
51249;BME280;39642;47.556;18.728;2024-01-11T11:45:46;100400.81;;;22.54;24.73
51249;BME280;39642;47.556;18.728;2024-01-11T11:51:14;100394.16;;;22.47;24.36
51249;BME280;39642;47.556;18.728;2024-01-11T11:53:41;100377.66;;;22.41;22.98
51249;BME280;39642;47.556;18.728;2024-01-11T11:56:09;100373.31;;;22.40;23.59
51249;BME280;39642;47.556;18.728;2024-01-11T11:58:36;100365.50;;;22.37;23.16
51249;BME280;39642;47.556;18.728;2024-01-11T12:01:03;100367.38;;;22.35;23.69
51249;BME280;39642;47.556;18.728;2024-01-11T12:03:35;100370.88;;;22.36;24.31
51249;BME280;39642;47.556;18.728;2024-01-11T12:06:05;100363.81;;;22.36;24.69
51249;BME280;39642;47.556;18.728;2024-01-11T12:08:32;100362.75;;;22.39;24.92
51249;BME280;39642;47.556;18.728;2024-01-11T12:10:58;100355.72;;;22.38;24.77
51249;BME280;39642;47.556;18.728;2024-01-11T12:13:25;100359.34;;;22.37;22.61
51249;BME280;39642;47.556;18.728;2024-01-11T12:15:51;100355.72;;;22.38;23.61
51249;BME280;39642;47.556;18.728;2024-01-11T12:18:17;100352.22;;;22.37;23.16
51249;BME280;39642;47.556;18.728;2024-01-11T12:20:45;100346.00;;;22.38;23.73
51249;BME280;39642;47.556;18.728;2024-01-11T12:23:11;100342.19;;;22.42;23.86
51249;BME280;39642;47.556;18.728;2024-01-11T12:25:40;100332.34;;;22.44;24.27
51249;BME280;39642;47.556;18.728;2024-01-11T12:28:07;100337.66;;;22.44;25.31
51249;BME280;39642;47.556;18.728;2024-01-11T12:30:33;100344.00;;;22.42;24.87
51249;BME280;39642;47.556;18.728;2024-01-11T12:32:59;100336.88;;;22.42;25.43
51249;BME280;39642;47.556;18.728;2024-01-11T12:35:30;100342.19;;;22.42;25.26
51249;BME280;39642;47.556;18.728;2024-01-11T12:37:59;100328.84;;;22.44;24.99
51249;BME280;39642;47.556;18.728;2024-01-11T12:40:59;100315.66;;;22.42;24.37